Time;durP1;ratioP1;P1;durP2;ratioP2;P2;SDS_P1;SDS_P2;PMS_P1;PMS_P2;Temp;Humidity;BMP_temperature;BMP_pressure;BME280_temperature;BME280_humidity;BME280_pressure;Samples;Min_cycle;Max_cycle;Signal;HPM_P1;HPM_P2
2021/06/02 00:01:52;;;;;;;1.90;1.23;;;;;;;;;;4402904;32;20303;-58
2021/06/02 00:04:19;;;;;;;1.52;1.12;;;;;;;;;;4389418;32;20312;-58
2021/06/02 00:06:45;;;;;;;2.55;1.40;;;;;;;;;;4402760;32;20296;-57
2021/06/02 00:09:12;;;;;;;2.20;1.50;;;;;;;;;;4389289;32;20230;-58
2021/06/02 00:11:38;;;;;;;1.90;1.10;;;;;;;;;;4403046;32;20397;-58
2021/06/02 00:14:04;;;;;;;5.23;1.30;;;;;;;;;;4402878;32;20276;-57
2021/06/02 00:16:30;;;;;;;1.50;1.07;;;;;;;;;;4402812;32;20253;-57
2021/06/02 00:18:57;;;;;;;1.77;0.83;;;;;;;;;;4403009;32;20256;-57
2021/06/02 00:21:22;;;;;;;1.63;1.27;;;;;;;;;;4402672;32;20703;-57
2021/06/02 00:23:48;;;;;;;2.53;1.10;;;;;;;;;;4403061;32;20280;-58
2021/06/02 00:26:14;;;;;;;1.57;1.00;;;;;;;;;;4398916;32;20330;-58
2021/06/02 00:28:41;;;;;;;2.92;1.25;;;;;;;;;;4418004;32;20210;-59
2021/06/02 00:31:07;;;;;;;1.95;1.23;;;;;;;;;;4417715;32;20451;-57
2021/06/02 00:33:32;;;;;;;2.20;1.10;;;;;;;;;;4418190;32;20663;-57
2021/06/02 00:36:01;;;;;;;3.53;1.35;;;;;;;;;;4421139;32;20296;-57
2021/06/02 00:38:26;;;;;;;4.35;1.20;;;;;;;;;;4421256;32;20239;-58
2021/06/02 00:40:52;;;;;;;6.22;1.42;;;;;;;;;;4421462;32;20724;-57
2021/06/02 00:43:19;;;;;;;1.62;1.20;;;;;;;;;;4421002;32;20208;-57
2021/06/02 00:45:48;;;;;;;2.75;1.42;;;;;;;;;;4421042;32;20228;-58
2021/06/02 00:48:16;;;;;;;2.47;1.20;;;;;;;;;;4420897;32;20205;-58
2021/06/02 00:50:44;;;;;;;1.30;1.20;;;;;;;;;;4407120;32;20427;-59
2021/06/02 00:53:10;;;;;;;1.43;1.10;;;;;;;;;;4420850;32;20278;-59
2021/06/02 00:55:35;;;;;;;4.28;1.40;;;;;;;;;;4420865;32;20280;-59
2021/06/02 00:58:02;;;;;;;1.70;1.20;;;;;;;;;;4407182;32;20622;-59
2021/06/02 01:00:29;;;;;;;6.07;1.77;;;;;;;;;;4420770;32;20306;-60
2021/06/02 01:02:56;;;;;;;2.17;1.30;;;;;;;;;;4420880;32;20229;-59
2021/06/02 01:05:24;;;;;;;1.47;1.20;;;;;;;;;;4420706;32;20302;-59
2021/06/02 01:07:51;;;;;;;2.27;1.87;;;;;;;;;;4420956;32;20301;-57
2021/06/02 01:10:18;;;;;;;1.40;1.15;;;;;;;;;;4420814;32;20268;-58
2021/06/02 01:12:48;;;;;;;1.40;1.27;;;;;;;;;;4420519;32;20237;-57
2021/06/02 01:15:15;;;;;;;2.03;1.83;;;;;;;;;;4420912;32;20615;-57
2021/06/02 01:17:41;;;;;;;2.53;1.60;;;;;;;;;;4420802;32;20264;-57
2021/06/02 01:20:08;;;;;;;6.33;2.70;;;;;;;;;;4420775;32;20340;-57
2021/06/02 01:22:35;;;;;;;2.10;1.20;;;;;;;;;;4420961;32;20692;-57
2021/06/02 01:25:12;;;;;;;2.03;1.67;;;;;;;;;;4420531;32;20239;-57
2021/06/02 01:27:39;;;;;;;3.43;1.70;;;;;;;;;;4420195;32;20299;-57
2021/06/02 01:30:12;;;;;;;3.80;1.60;;;;;;;;;;4420500;32;20220;-58
2021/06/02 01:32:56;;;;;;;3.10;1.53;;;;;;;;;;4406127;32;20601;-58
2021/06/02 01:35:21;;;;;;;3.43;1.80;;;;;;;;;;4405634;32;20602;-58
2021/06/02 01:38:08;;;;;;;1.73;1.50;;;;;;;;;;4405484;32;20326;-59
2021/06/02 01:40:52;;;;;;;1.77;1.27;;;;;;;;;;4405240;32;20201;-59
2021/06/02 01:43:32;;;;;;;6.70;2.10;;;;;;;;;;4391293;32;20237;-58
2021/06/02 01:46:29;;;;;;;4.30;2.20;;;;;;;;;;4404132;32;20661;-58
2021/06/02 01:49:09;;;;;;;6.03;2.53;;;;;;;;;;4405104;32;20210;-59
2021/06/02 01:51:53;;;;;;;2.50;1.75;;;;;;;;;;4391386;32;20241;-59
2021/06/02 01:55:00;;;;;;;2.47;1.70;;;;;;;;;;4405215;32;20273;-59
2021/06/02 01:57:44;;;;;;;4.68;1.67;;;;;;;;;;4357375;32;20722;-59
2021/06/02 02:00:40;;;;;;;3.57;1.60;;;;;;;;;;4400852;32;20209;-59
2021/06/02 02:03:20;;;;;;;4.35;1.75;;;;;;;;;;4404964;32;20330;-58
2021/06/02 02:06:14;;;;;;;2.70;1.65;;;;;;;;;;4404907;32;20350;-57
2021/06/02 02:08:55;;;;;;;7.43;1.45;;;;;;;;;;4404966;32;20245;-58
2021/06/02 02:11:28;;;;;;;2.00;1.63;;;;;;;;;;4404728;32;20213;-59
2021/06/02 02:14:41;;;;;;;5.83;1.30;;;;;;;;;;4390907;32;20281;-59
2021/06/02 02:17:47;;;;;;;3.23;1.43;;;;;;;;;;4400575;32;20311;-58
2021/06/02 02:20:42;;;;;;;2.47;1.40;;;;;;;;;;4365728;32;20243;-58
2021/06/02 02:23:26;;;;;;;4.90;1.60;;;;;;;;;;4362952;32;20667;-58
2021/06/02 02:26:22;;;;;;;2.37;1.77;;;;;;;;;;4412426;32;20594;-59
2021/06/02 02:29:10;;;;;;;7.57;1.43;;;;;;;;;;4404674;32;20324;-59
2021/06/02 02:31:42;;;;;;;6.50;2.63;;;;;;;;;;4417160;32;20240;-59
2021/06/02 02:34:31;;;;;;;3.43;1.97;;;;;;;;;;4419795;32;20291;-57
2021/06/02 02:37:26;;;;;;;2.00;1.50;;;;;;;;;;4383655;32;20592;-58
2021/06/02 02:40:17;;;;;;;2.00;1.70;;;;;;;;;;4373004;32;20307;-58
2021/06/02 02:43:18;;;;;;;1.70;1.57;;;;;;;;;;4419522;32;20699;-59
2021/06/02 02:45:57;;;;;;;6.17;1.70;;;;;;;;;;4416299;32;20271;-59
2021/06/02 02:48:28;;;;;;;2.10;1.67;;;;;;;;;;4419557;32;20495;-59
2021/06/02 02:51:03;;;;;;;2.57;1.80;;;;;;;;;;4419807;32;20231;-58
2021/06/02 02:53:40;;;;;;;2.20;1.60;;;;;;;;;;4419418;32;20613;-58
2021/06/02 02:56:14;;;;;;;3.60;1.73;;;;;;;;;;4419213;32;20197;-58
2021/06/02 02:58:59;;;;;;;3.43;2.63;;;;;;;;;;4419284;32;20273;-58
2021/06/02 03:01:31;;;;;;;7.10;2.30;;;;;;;;;;4419337;32;20251;-58
2021/06/02 03:04:07;;;;;;;3.45;2.97;;;;;;;;;;4419088;32;20281;-57
2021/06/02 03:06:38;;;;;;;4.87;3.03;;;;;;;;;;4419036;32;20233;-58
2021/06/02 03:09:19;;;;;;;3.83;2.70;;;;;;;;;;4419415;32;20213;-58
2021/06/02 03:11:44;;;;;;;7.30;2.97;;;;;;;;;;4418878;32;20525;-58
2021/06/02 03:14:18;;;;;;;3.13;2.40;;;;;;;;;;4418809;32;20213;-58
2021/06/02 03:16:53;;;;;;;3.77;2.10;;;;;;;;;;4418961;32;20233;-58
2021/06/02 03:19:23;;;;;;;3.70;2.10;;;;;;;;;;4419044;32;20232;-58
2021/06/02 03:21:56;;;;;;;5.57;2.57;;;;;;;;;;4419008;32;20213;-59
2021/06/02 03:24:22;;;;;;;2.20;2.00;;;;;;;;;;4418670;32;20652;-59
2021/06/02 03:27:08;;;;;;;6.23;2.27;;;;;;;;;;4418736;32;20307;-59
2021/06/02 03:29:52;;;;;;;5.83;3.23;;;;;;;;;;4418562;32;20465;-60
2021/06/02 03:32:52;;;;;;;4.93;3.10;;;;;;;;;;4406383;32;20369;-59
2021/06/02 03:35:43;;;;;;;3.33;2.57;;;;;;;;;;4403844;32;20228;-59
2021/06/02 03:38:28;;;;;;;5.43;2.73;;;;;;;;;;4401134;32;20669;-60
2021/06/02 03:41:05;;;;;;;12.30;2.70;;;;;;;;;;4403143;32;20271;-59
2021/06/02 03:43:55;;;;;;;4.00;3.10;;;;;;;;;;4403408;32;20614;-59
2021/06/02 03:46:44;;;;;;;4.43;3.30;;;;;;;;;;4403279;32;20218;-59
2021/06/02 03:49:27;;;;;;;6.83;3.10;;;;;;;;;;4403227;32;20240;-61
2021/06/02 03:52:02;;;;;;;8.60;3.30;;;;;;;;;;4403105;32;20310;-59
2021/06/02 03:55:04;;;;;;;12.87;3.67;;;;;;;;;;4403224;32;20208;-59
2021/06/02 03:58:11;;;;;;;7.87;3.43;;;;;;;;;;4378394;32;20252;-59
2021/06/02 04:00:40;;;;;;;6.00;3.97;;;;;;;;;;4387012;32;20549;-57
2021/06/02 04:03:22;;;;;;;6.93;3.67;;;;;;;;;;4403394;32;20576;-58
2021/06/02 04:06:46;;;;;;;11.63;5.07;;;;;;;;;;4402908;32;20783;-57
2021/06/02 04:09:24;;;;;;;11.12;4.15;;;;;;;;;;4362034;32;20253;-57
2021/06/02 04:12:17;;;;;;;10.00;4.27;;;;;;;;;;4402647;32;20233;-59
2021/06/02 04:14:57;;;;;;;9.93;3.57;;;;;;;;;;4403133;32;20394;-59
2021/06/02 04:17:24;;;;;;;7.45;3.30;;;;;;;;;;4402787;32;20217;-57
2021/06/02 04:19:51;;;;;;;8.30;2.83;;;;;;;;;;4402390;32;20245;-57
2021/06/02 04:22:18;;;;;;;10.03;2.80;;;;;;;;;;4402988;32;20613;-58
2021/06/02 04:24:44;;;;;;;11.00;2.73;;;;;;;;;;4389602;32;20245;-58
2021/06/02 04:27:13;;;;;;;8.93;4.63;;;;;;;;;;4403781;32;20325;-58
2021/06/02 04:29:41;;;;;;;4.33;3.07;;;;;;;;;;4418000;32;20205;-58
2021/06/02 04:32:08;;;;;;;6.20;2.20;;;;;;;;;;4417524;32;20643;-57
2021/06/02 04:34:34;;;;;;;11.87;3.13;;;;;;;;;;4417617;32;20221;-58
2021/06/02 04:37:02;;;;;;;15.03;3.60;;;;;;;;;;4417893;32;20565;-60
2021/06/02 04:39:29;;;;;;;3.83;2.90;;;;;;;;;;4417343;32;20614;-59
2021/06/02 04:41:58;;;;;;;10.48;3.20;;;;;;;;;;4417413;32;20248;-60
2021/06/02 04:44:26;;;;;;;12.77;3.50;;;;;;;;;;4417788;32;20213;-59
2021/06/02 04:46:52;;;;;;;9.23;3.17;;;;;;;;;;4403848;32;20435;-60
2021/06/02 04:49:18;;;;;;;3.55;2.85;;;;;;;;;;4417999;32;20289;-59
2021/06/02 04:51:59;;;;;;;5.27;2.30;;;;;;;;;;4417674;32;20264;-60
2021/06/02 04:54:55;;;;;;;10.50;3.57;;;;;;;;;;4418203;32;20201;-59
2021/06/02 04:57:58;;;;;;;11.63;3.25;;;;;;;;;;4417989;32;20262;-59
2021/06/02 05:00:57;;;;;;;3.10;2.80;;;;;;;;;;4417794;32;20227;-59
2021/06/02 05:03:56;;;;;;;13.50;3.27;;;;;;;;;;4417569;32;20272;-59
2021/06/02 05:06:36;;;;;;;5.67;2.70;;;;;;;;;;4417619;32;20293;-59
2021/06/02 05:09:04;;;;;;;7.97;2.87;;;;;;;;;;4418784;32;20201;-59
2021/06/02 05:12:08;;;;;;;7.97;3.40;;;;;;;;;;4418370;32;20273;-59
2021/06/02 05:15:12;;;;;;;5.83;3.27;;;;;;;;;;4418240;32;20205;-59
2021/06/02 05:18:04;;;;;;;4.45;3.10;;;;;;;;;;4404646;32;20680;-59
2021/06/02 05:23:24;;;;;;;11.60;3.47;;;;;;;;;;4421862;32;20707;-59
2021/06/02 05:26:25;;;;;;;4.32;3.22;;;;;;;;;;4407405;32;20225;-60
2021/06/02 05:29:11;;;;;;;8.63;2.80;;;;;;;;;;4367093;32;20252;-59
2021/06/02 05:31:58;;;;;;;7.57;3.87;;;;;;;;;;4398191;32;20245;-59
2021/06/02 05:34:54;;;;;;;4.47;3.53;;;;;;;;;;4406403;32;20695;-59
2021/06/02 05:37:35;;;;;;;8.00;3.97;;;;;;;;;;4406206;32;20297;-59
2021/06/02 05:40:25;;;;;;;7.05;4.47;;;;;;;;;;4406133;32;20205;-59
2021/06/02 05:43:28;;;;;;;10.32;5.15;;;;;;;;;;4406473;32;20221;-59
2021/06/02 05:46:23;;;;;;;14.85;5.90;;;;;;;;;;4397463;32;20261;-59
2021/06/02 05:49:34;;;;;;;17.58;5.40;;;;;;;;;;4417276;32;20350;-59
2021/06/02 05:52:06;;;;;;;12.53;4.57;;;;;;;;;;4416038;32;20384;-59
2021/06/02 05:54:48;;;;;;;11.60;5.97;;;;;;;;;;4418566;32;20205;-60
2021/06/02 05:57:19;;;;;;;6.17;4.30;;;;;;;;;;4403825;32;20257;-59
2021/06/02 06:00:18;;;;;;;8.57;5.07;;;;;;;;;;4417503;32;20228;-60
2021/06/02 06:02:46;;;;;;;7.63;6.93;;;;;;;;;;4418327;32;20248;-59
2021/06/02 06:05:15;;;;;;;15.50;7.10;;;;;;;;;;4419966;32;20312;-59
2021/06/02 06:08:04;;;;;;;28.58;7.30;;;;;;;;;;4420132;32;20256;-59
2021/06/02 06:10:44;;;;;;;11.30;5.00;;;;;;;;;;4419397;32;20617;-60
2021/06/02 06:13:51;;;;;;;8.23;4.87;;;;;;;;;;4418434;32;20251;-60
2021/06/02 06:16:35;;;;;;;8.00;4.20;;;;;;;;;;4404077;32;20217;-58
2021/06/02 06:19:21;;;;;;;4.43;3.97;;;;;;;;;;4404395;32;20210;-59
2021/06/02 06:22:01;;;;;;;4.93;3.73;;;;;;;;;;4403729;32;20327;-59
2021/06/02 06:24:50;;;;;;;6.93;3.90;;;;;;;;;;4404097;32;20575;-59
2021/06/02 06:27:19;;;;;;;4.77;3.53;;;;;;;;;;4410923;32;20276;-60
2021/06/02 06:29:51;;;;;;;4.87;3.63;;;;;;;;;;4405417;32;20386;-59
2021/06/02 06:32:18;;;;;;;8.57;3.90;;;;;;;;;;4418423;32;20619;-59
2021/06/02 06:34:46;;;;;;;4.53;3.90;;;;;;;;;;4405510;32;20237;-59
2021/06/02 06:37:14;;;;;;;5.30;3.57;;;;;;;;;;4418949;32;20225;-59
2021/06/02 06:39:48;;;;;;;7.15;3.92;;;;;;;;;;4418368;32;20569;-59
2021/06/02 06:42:18;;;;;;;5.68;3.28;;;;;;;;;;4405117;32;20604;-59
2021/06/02 06:44:46;;;;;;;3.23;2.80;;;;;;;;;;4418997;32;20214;-59
2021/06/02 06:47:15;;;;;;;12.60;3.20;;;;;;;;;;4404868;32;20277;-59
2021/06/02 06:49:46;;;;;;;7.05;2.67;;;;;;;;;;4418719;32;20210;-60
2021/06/02 06:52:14;;;;;;;7.30;3.87;;;;;;;;;;4405062;32;20256;-60
2021/06/02 06:54:41;;;;;;;7.87;3.40;;;;;;;;;;4418076;32;20688;-60
2021/06/02 06:57:07;;;;;;;11.25;3.95;;;;;;;;;;4418084;32;20618;-60
2021/06/02 06:59:34;;;;;;;9.77;4.25;;;;;;;;;;4404535;32;20594;-59
2021/06/02 07:01:59;;;;;;;8.80;4.32;;;;;;;;;;4418383;32;20225;-59
2021/06/02 07:04:28;;;;;;;8.85;4.10;;;;;;;;;;4417731;32;20270;-59
2021/06/02 07:06:54;;;;;;;9.68;3.33;;;;;;;;;;4418192;32;20633;-58
2021/06/02 07:09:21;;;;;;;8.18;3.30;;;;;;;;;;4404074;32;20263;-58
2021/06/02 07:11:48;;;;;;;9.80;4.72;;;;;;;;;;4417632;32;20263;-59
2021/06/02 07:14:23;;;;;;;8.23;4.77;;;;;;;;;;4417250;32;20275;-59
2021/06/02 07:16:50;;;;;;;5.90;3.12;;;;;;;;;;4417760;32;20262;-59
2021/06/02 07:19:17;;;;;;;7.80;3.00;;;;;;;;;;4417958;32;20738;-59
2021/06/02 07:21:44;;;;;;;3.90;2.85;;;;;;;;;;4404735;32;20705;-59
2021/06/02 07:24:10;;;;;;;9.02;3.83;;;;;;;;;;4418875;32;20259;-60
2021/06/02 07:26:38;;;;;;;4.43;2.75;;;;;;;;;;4419156;32;20228;-59
2021/06/02 07:29:03;;;;;;;6.03;2.95;;;;;;;;;;4419374;32;20606;-59
2021/06/02 07:31:29;;;;;;;7.07;2.62;;;;;;;;;;4412145;32;20279;-60
2021/06/02 07:33:54;;;;;;;8.43;2.85;;;;;;;;;;4389928;32;20245;-59
2021/06/02 07:36:20;;;;;;;3.22;2.00;;;;;;;;;;4404415;32;20241;-59
2021/06/02 07:38:45;;;;;;;6.25;2.85;;;;;;;;;;4404665;32;20272;-60
2021/06/02 07:41:11;;;;;;;4.65;2.75;;;;;;;;;;4404108;32;20602;-59
2021/06/02 07:43:36;;;;;;;9.05;3.05;;;;;;;;;;4403856;32;20240;-59
2021/06/02 07:46:03;;;;;;;6.00;2.62;;;;;;;;;;4403955;32;20276;-59
2021/06/02 07:48:29;;;;;;;7.90;2.70;;;;;;;;;;4403382;32;20311;-60
2021/06/02 07:50:55;;;;;;;7.85;2.55;;;;;;;;;;4390521;32;20689;-58
2021/06/02 07:53:20;;;;;;;14.13;2.85;;;;;;;;;;4390125;32;20256;-58
2021/06/02 07:55:46;;;;;;;5.25;2.42;;;;;;;;;;4390725;32;20680;-59
2021/06/02 07:58:11;;;;;;;11.95;2.60;;;;;;;;;;4404722;32;20211;-60
2021/06/02 08:00:37;;;;;;;5.45;2.72;;;;;;;;;;4403437;32;20677;-59
2021/06/02 08:03:03;;;;;;;5.15;2.58;;;;;;;;;;4402449;32;20244;-59
2021/06/02 08:05:28;;;;;;;7.68;2.45;;;;;;;;;;4402362;32;20639;-59
2021/06/02 08:07:54;;;;;;;2.80;2.40;;;;;;;;;;4388504;32;20237;-59
2021/06/02 08:10:19;;;;;;;6.03;2.45;;;;;;;;;;4402516;32;20311;-59
2021/06/02 08:12:47;;;;;;;11.65;2.50;;;;;;;;;;4388247;32;20661;-60
2021/06/02 08:15:13;;;;;;;4.97;2.40;;;;;;;;;;4388923;32;20277;-59
2021/06/02 08:17:41;;;;;;;7.32;2.20;;;;;;;;;;4403313;32;20221;-60
2021/06/02 08:20:09;;;;;;;11.18;2.75;;;;;;;;;;4412339;32;20277;-59
2021/06/02 08:22:35;;;;;;;12.30;2.65;;;;;;;;;;4418598;32;20214;-59
2021/06/02 08:25:06;;;;;;;6.82;2.95;;;;;;;;;;4417904;32;20554;-59
2021/06/02 08:27:32;;;;;;;8.82;3.03;;;;;;;;;;4418201;32;20213;-60
2021/06/02 08:29:58;;;;;;;6.78;3.15;;;;;;;;;;4404210;32;20369;-59
2021/06/02 08:32:24;;;;;;;8.93;2.62;;;;;;;;;;4404696;32;20241;-58
2021/06/02 08:34:51;;;;;;;10.70;3.58;;;;;;;;;;4402279;32;20659;-59
2021/06/02 08:37:16;;;;;;;4.97;2.35;;;;;;;;;;4413826;32;20251;-59
2021/06/02 08:39:42;;;;;;;6.72;2.80;;;;;;;;;;4416992;32;20205;-60
2021/06/02 08:42:11;;;;;;;8.20;2.20;;;;;;;;;;4414016;32;20744;-59
2021/06/02 08:44:37;;;;;;;15.30;2.55;;;;;;;;;;4410095;32;20267;-60
2021/06/02 08:47:04;;;;;;;9.38;2.40;;;;;;;;;;4407979;32;20717;-60
2021/06/02 08:49:30;;;;;;;11.00;2.70;;;;;;;;;;4388845;32;20326;-60
2021/06/02 08:51:56;;;;;;;5.53;2.20;;;;;;;;;;4415987;32;20217;-60
2021/06/02 08:54:24;;;;;;;9.57;2.55;;;;;;;;;;4411768;32;20245;-60
2021/06/02 08:56:51;;;;;;;2.47;2.10;;;;;;;;;;4399258;32;20241;-60
2021/06/02 08:59:17;;;;;;;6.47;1.67;;;;;;;;;;4410166;32;20226;-60
2021/06/02 09:01:43;;;;;;;3.58;1.75;;;;;;;;;;4404954;32;20297;-60
2021/06/02 09:04:09;;;;;;;2.67;1.80;;;;;;;;;;4390962;32;20331;-60
2021/06/02 09:06:43;;;;;;;4.12;2.12;;;;;;;;;;4405279;32;20306;-60
2021/06/02 09:09:11;;;;;;;6.03;2.70;;;;;;;;;;4405316;32;20272;-60
2021/06/02 09:11:39;;;;;;;12.98;2.28;;;;;;;;;;4405227;32;20743;-60
2021/06/02 09:14:20;;;;;;;5.75;3.42;;;;;;;;;;4391135;32;20248;-60
2021/06/02 09:16:57;;;;;;;3.97;2.10;;;;;;;;;;4414024;32;20610;-59
2021/06/02 09:19:45;;;;;;;3.42;2.15;;;;;;;;;;4419944;32;20280;-59
2021/06/02 09:22:16;;;;;;;5.62;2.12;;;;;;;;;;4419987;32;20290;-58
2021/06/02 09:24:53;;;;;;;4.43;1.90;;;;;;;;;;4420423;32;20268;-59
2021/06/02 09:27:54;;;;;;;5.87;1.75;;;;;;;;;;4402131;32;20653;-59
2021/06/02 09:30:21;;;;;;;9.70;2.62;;;;;;;;;;4395811;32;20240;-58
2021/06/02 09:32:54;;;;;;;5.82;1.85;;;;;;;;;;4404998;32;20393;-59
2021/06/02 09:35:19;;;;;;;4.07;1.50;;;;;;;;;;4391260;32;20237;-59
2021/06/02 09:37:47;;;;;;;2.67;1.60;;;;;;;;;;4404506;32;20290;-59
2021/06/02 09:40:22;;;;;;;4.82;1.30;;;;;;;;;;4405457;32;20579;-58
2021/06/02 09:42:47;;;;;;;2.72;1.27;;;;;;;;;;4405029;32;20226;-59
2021/06/02 09:45:14;;;;;;;8.55;1.30;;;;;;;;;;4404946;32;20680;-58
2021/06/02 09:47:53;;;;;;;7.05;1.58;;;;;;;;;;4390993;32;20229;-57
2021/06/02 09:50:38;;;;;;;2.62;1.40;;;;;;;;;;4409266;32;20213;-59
2021/06/02 09:53:08;;;;;;;3.80;1.33;;;;;;;;;;4420221;32;20720;-60
2021/06/02 09:55:38;;;;;;;10.18;2.12;;;;;;;;;;4405321;32;20235;-59
2021/06/02 09:58:07;;;;;;;5.75;2.17;;;;;;;;;;4404934;32;20225;-59
2021/06/02 10:00:33;;;;;;;6.85;1.55;;;;;;;;;;4405027;32;20654;-59
2021/06/02 10:03:10;;;;;;;5.65;1.52;;;;;;;;;;4405104;32;20312;-60
2021/06/02 10:05:39;;;;;;;4.97;1.30;;;;;;;;;;4404960;32;20224;-59
2021/06/02 10:08:07;;;;;;;7.90;1.52;;;;;;;;;;4390825;32;20241;-58
2021/06/02 10:10:33;;;;;;;5.82;2.00;;;;;;;;;;4405164;32;20202;-59
2021/06/02 10:13:14;;;;;;;1.55;1.17;;;;;;;;;;4404299;32;20335;-59
2021/06/02 10:15:41;;;;;;;7.55;1.58;;;;;;;;;;4404089;32;20778;-59
2021/06/02 10:18:37;;;;;;;5.30;1.55;;;;;;;;;;4404181;32;20293;-59
2021/06/02 10:21:07;;;;;;;2.85;1.25;;;;;;;;;;4408355;32;20243;-60
2021/06/02 10:23:36;;;;;;;2.37;1.20;;;;;;;;;;4404314;32;20282;-59
2021/06/02 10:26:03;;;;;;;5.10;1.60;;;;;;;;;;4418162;32;20235;-58
2021/06/02 10:28:30;;;;;;;3.80;1.65;;;;;;;;;;4407143;32;20293;-59
2021/06/02 10:30:56;;;;;;;7.60;1.73;;;;;;;;;;4395181;32;20593;-58
2021/06/02 10:33:21;;;;;;;2.03;1.40;;;;;;;;;;4403772;32;20622;-58
2021/06/02 10:35:47;;;;;;;9.20;1.92;;;;;;;;;;4403945;32;20276;-60
2021/06/02 10:38:15;;;;;;;9.55;2.35;;;;;;;;;;4390108;32;20296;-59
2021/06/02 10:40:41;;;;;;;6.28;1.98;;;;;;;;;;4377966;32;20234;-61
2021/06/02 10:43:27;;;;;;;5.82;1.75;;;;;;;;;;4390116;32;20673;-59
2021/06/02 10:45:58;;;;;;;6.28;1.70;;;;;;;;;;4403852;32;20480;-60
2021/06/02 10:48:47;;;;;;;7.28;1.35;;;;;;;;;;4404514;32;20213;-58
2021/06/02 10:51:36;;;;;;;5.47;1.40;;;;;;;;;;4414991;32;20296;-59
2021/06/02 10:54:13;;;;;;;2.97;1.35;;;;;;;;;;4419220;32;20204;-60
2021/06/02 10:57:02;;;;;;;4.95;1.73;;;;;;;;;;4419723;32;20397;-60
2021/06/02 10:59:44;;;;;;;10.75;1.73;;;;;;;;;;4419290;32;20221;-59
2021/06/02 11:02:11;;;;;;;3.95;1.45;;;;;;;;;;4418747;32;20282;-59
2021/06/02 11:04:40;;;;;;;3.33;1.75;;;;;;;;;;4418927;32;20313;-60
2021/06/02 11:07:49;;;;;;;3.22;1.50;;;;;;;;;;4419376;32;20243;-58
2021/06/02 11:10:15;;;;;;;7.95;1.48;;;;;;;;;;4383066;32;20238;-59
2021/06/02 11:12:49;;;;;;;4.90;1.33;;;;;;;;;;4419125;32;20557;-58
2021/06/02 11:15:30;;;;;;;4.50;1.42;;;;;;;;;;4418955;32;20224;-59
2021/06/02 11:18:08;;;;;;;4.18;1.42;;;;;;;;;;4419166;32;20228;-58
2021/06/02 11:20:41;;;;;;;4.03;1.37;;;;;;;;;;4419458;32;20864;-59
2021/06/02 11:23:10;;;;;;;3.37;2.28;;;;;;;;;;4419041;32;20292;-57
2021/06/02 11:25:35;;;;;;;2.00;1.40;;;;;;;;;;4405280;32;20281;-57
2021/06/02 11:28:04;;;;;;;1.77;1.10;;;;;;;;;;4409450;32;20244;-60
2021/06/02 11:30:29;;;;;;;11.55;1.48;;;;;;;;;;4408495;32;20319;-58
2021/06/02 11:32:58;;;;;;;9.88;2.15;;;;;;;;;;4403695;32;20230;-58
2021/06/02 11:36:04;;;;;;;7.15;1.87;;;;;;;;;;4404604;32;20255;-58
2021/06/02 11:38:31;;;;;;;5.20;1.52;;;;;;;;;;4391916;32;20325;-59
2021/06/02 11:40:56;;;;;;;2.33;1.45;;;;;;;;;;4391386;32;20340;-60
2021/06/02 11:43:23;;;;;;;7.07;1.20;;;;;;;;;;4404764;32;20210;-59
2021/06/02 11:45:49;;;;;;;2.75;1.55;;;;;;;;;;4404169;32;20295;-59
2021/06/02 11:48:24;;;;;;;9.70;1.50;;;;;;;;;;4389604;32;20606;-59
2021/06/02 11:50:50;;;;;;;1.62;1.33;;;;;;;;;;4411718;32;20216;-59
2021/06/02 11:53:16;;;;;;;3.20;2.00;;;;;;;;;;4418452;32;20205;-58
2021/06/02 11:55:41;;;;;;;2.20;1.20;;;;;;;;;;4418462;32;20705;-58
2021/06/02 11:58:07;;;;;;;2.55;2.08;;;;;;;;;;4404799;32;20303;-58
2021/06/02 12:00:33;;;;;;;8.50;1.87;;;;;;;;;;4418545;32;20310;-58
2021/06/02 12:03:04;;;;;;;3.42;1.50;;;;;;;;;;4418632;32;20255;-59
2021/06/02 12:05:31;;;;;;;3.15;1.60;;;;;;;;;;4418858;32;20267;-59
2021/06/02 12:08:07;;;;;;;7.50;1.70;;;;;;;;;;4418444;32;20221;-58
2021/06/02 12:10:37;;;;;;;5.62;1.33;;;;;;;;;;4418582;32;20201;-58
2021/06/02 12:13:05;;;;;;;3.50;1.48;;;;;;;;;;4404359;32;20559;-57
2021/06/02 12:15:41;;;;;;;2.30;1.25;;;;;;;;;;4418669;32;20679;-57
2021/06/02 12:18:06;;;;;;;8.07;2.37;;;;;;;;;;4418505;32;20365;-58
2021/06/02 12:20:35;;;;;;;4.20;1.30;;;;;;;;;;4418463;32;20789;-59
2021/06/02 12:23:04;;;;;;;1.83;1.20;;;;;;;;;;4418450;32;20221;-58
2021/06/02 12:25:31;;;;;;;3.00;1.17;;;;;;;;;;4418264;32;20193;-59
2021/06/02 12:28:03;;;;;;;7.40;1.40;;;;;;;;;;4409422;32;20237;-58
2021/06/02 12:30:39;;;;;;;1.55;1.27;;;;;;;;;;4407634;32;20209;-58
2021/06/02 12:33:09;;;;;;;2.40;1.52;;;;;;;;;;4403329;32;20299;-58
2021/06/02 12:35:44;;;;;;;2.42;1.10;;;;;;;;;;4403123;32;20256;-58
2021/06/02 12:38:16;;;;;;;3.53;1.37;;;;;;;;;;4402794;32;20232;-58
2021/06/02 12:41:01;;;;;;;4.90;1.50;;;;;;;;;;4403027;32;20263;-59
2021/06/02 12:43:33;;;;;;;3.12;1.30;;;;;;;;;;4403110;32;20330;-58
2021/06/02 12:46:10;;;;;;;1.27;1.10;;;;;;;;;;4403008;32;20221;-59
2021/06/02 12:48:36;;;;;;;3.90;1.70;;;;;;;;;;4403467;32;20208;-58
2021/06/02 12:51:04;;;;;;;4.03;1.20;;;;;;;;;;4412345;32;20276;-59
2021/06/02 12:53:37;;;;;;;9.75;1.77;;;;;;;;;;4418354;32;20236;-59
2021/06/02 12:56:04;;;;;;;1.83;1.30;;;;;;;;;;4418305;32;20290;-59
2021/06/02 12:58:31;;;;;;;2.40;1.50;;;;;;;;;;4418094;32;20200;-59
2021/06/02 13:01:01;;;;;;;2.75;1.23;;;;;;;;;;4417955;32;20297;-60
2021/06/02 13:03:27;;;;;;;4.47;2.60;;;;;;;;;;4418244;32;20603;-59
2021/06/02 13:05:53;;;;;;;3.78;1.67;;;;;;;;;;4417850;32;20527;-59
2021/06/02 13:08:18;;;;;;;5.03;1.80;;;;;;;;;;4418886;32;20243;-60
2021/06/02 13:10:46;;;;;;;5.53;2.03;;;;;;;;;;4418618;32;20287;-59
2021/06/02 13:13:14;;;;;;;7.70;2.05;;;;;;;;;;4418110;32;20216;-58
2021/06/02 13:15:55;;;;;;;8.93;5.50;;;;;;;;;;4418280;32;20240;-58
2021/06/02 13:18:25;;;;;;;6.87;2.30;;;;;;;;;;4417894;32;20541;-58
2021/06/02 13:20:51;;;;;;;3.53;1.92;;;;;;;;;;4418203;32;20209;-58
2021/06/02 13:23:30;;;;;;;4.68;2.05;;;;;;;;;;4418550;32;20261;-59
2021/06/02 13:25:58;;;;;;;6.05;1.83;;;;;;;;;;4418651;32;20232;-59
2021/06/02 13:28:24;;;;;;;2.83;1.60;;;;;;;;;;4392632;32;20244;-59
2021/06/02 13:30:55;;;;;;;6.40;1.73;;;;;;;;;;4407925;32;20280;-58
2021/06/02 13:33:21;;;;;;;4.15;1.62;;;;;;;;;;4403185;32;20221;-58
2021/06/02 13:36:03;;;;;;;2.58;1.50;;;;;;;;;;4403259;32;20303;-58
2021/06/02 13:38:29;;;;;;;12.20;2.00;;;;;;;;;;4402727;32;20306;-59
2021/06/02 13:40:55;;;;;;;4.25;1.83;;;;;;;;;;4388885;32;20250;-59
2021/06/02 13:43:20;;;;;;;3.78;2.20;;;;;;;;;;4403939;32;20232;-59
2021/06/02 13:45:47;;;;;;;3.15;1.70;;;;;;;;;;4404995;32;20369;-58
2021/06/02 13:48:40;;;;;;;5.60;1.55;;;;;;;;;;4391252;32;20285;-59
2021/06/02 13:51:18;;;;;;;6.05;2.15;;;;;;;;;;4399105;32;20617;-59
2021/06/02 13:54:16;;;;;;;3.33;1.80;;;;;;;;;;4420667;32;20213;-59
2021/06/02 13:57:07;;;;;;;1.92;1.20;;;;;;;;;;4406186;32;20709;-60
2021/06/02 13:59:39;;;;;;;2.17;1.27;;;;;;;;;;4419839;32;20213;-60
2021/06/02 14:02:09;;;;;;;2.20;1.35;;;;;;;;;;4420221;32;20233;-59
2021/06/02 14:04:36;;;;;;;2.12;1.80;;;;;;;;;;4420498;32;20221;-59
2021/06/02 14:07:04;;;;;;;2.87;2.03;;;;;;;;;;4420371;32;20592;-59
2021/06/02 14:09:29;;;;;;;7.72;1.62;;;;;;;;;;4405803;32;20295;-59
2021/06/02 14:11:55;;;;;;;5.05;2.15;;;;;;;;;;4419760;32;20683;-60
2021/06/02 14:14:21;;;;;;;3.87;1.77;;;;;;;;;;4419876;32;20209;-60
2021/06/02 14:16:47;;;;;;;2.83;2.35;;;;;;;;;;4419829;32;20427;-59
2021/06/02 14:19:13;;;;;;;3.65;1.65;;;;;;;;;;4405752;32;20611;-60
2021/06/02 14:21:41;;;;;;;9.70;2.92;;;;;;;;;;4419445;32;20248;-60
2021/06/02 14:24:08;;;;;;;6.37;1.95;;;;;;;;;;4419758;32;20205;-60
2021/06/02 14:26:34;;;;;;;2.58;1.42;;;;;;;;;;4406317;32;20621;-61
2021/06/02 14:29:03;;;;;;;7.03;1.60;;;;;;;;;;4404683;32;20213;-60
2021/06/02 14:31:29;;;;;;;1.87;1.48;;;;;;;;;;4409531;32;20292;-59
2021/06/02 14:33:54;;;;;;;4.55;1.20;;;;;;;;;;4405376;32;20210;-59
2021/06/02 14:36:20;;;;;;;2.10;1.25;;;;;;;;;;4419284;32;20229;-59
2021/06/02 14:38:45;;;;;;;11.80;1.80;;;;;;;;;;4419692;32;20301;-60
2021/06/02 14:41:11;;;;;;;4.37;1.73;;;;;;;;;;4419436;32;20338;-60
2021/06/02 14:43:37;;;;;;;3.35;2.30;;;;;;;;;;4419568;32;20285;-58
2021/06/02 14:46:04;;;;;;;3.35;1.77;;;;;;;;;;4419463;32;20334;-60
2021/06/02 14:48:34;;;;;;;8.00;2.03;;;;;;;;;;4419183;32;20276;-59
2021/06/02 14:51:01;;;;;;;2.15;1.70;;;;;;;;;;4410008;32;20248;-60
2021/06/02 14:53:28;;;;;;;10.65;3.17;;;;;;;;;;4403640;32;20261;-60
2021/06/02 14:55:54;;;;;;;7.47;1.80;;;;;;;;;;4404260;32;20210;-60
2021/06/02 14:58:19;;;;;;;8.02;1.40;;;;;;;;;;4404170;32;20686;-59
2021/06/02 15:00:45;;;;;;;5.68;1.60;;;;;;;;;;4403552;32;20228;-60
2021/06/02 15:03:10;;;;;;;4.65;2.08;;;;;;;;;;4403227;32;20229;-60
2021/06/02 15:05:35;;;;;;;1.50;1.30;;;;;;;;;;4376079;32;20902;-60
2021/06/02 15:08:02;;;;;;;8.20;1.95;;;;;;;;;;4403537;32;20680;-59
2021/06/02 15:10:28;;;;;;;2.22;1.40;;;;;;;;;;4404097;32;20315;-60
2021/06/02 15:12:55;;;;;;;4.97;2.10;;;;;;;;;;4404096;32;20293;-59
2021/06/02 15:15:22;;;;;;;5.30;1.62;;;;;;;;;;4403756;32;20206;-59
2021/06/02 15:17:48;;;;;;;8.13;3.10;;;;;;;;;;4404321;32;20327;-60
2021/06/02 15:20:18;;;;;;;5.55;2.33;;;;;;;;;;4404985;32;20692;-60
2021/06/02 15:22:45;;;;;;;5.18;1.62;;;;;;;;;;4419332;32;20304;-58